sensor_id;sensor_type;location;lat;lon;timestamp;temperature;humidity
22838;DHT22;11585;51.450;-0.240;2023-05-29T00:01:48;16.70;99.90
22838;DHT22;11585;51.450;-0.240;2023-05-29T00:04:14;16.60;99.90
22838;DHT22;11585;51.450;-0.240;2023-05-29T00:06:39;16.60;99.90
22838;DHT22;11585;51.450;-0.240;2023-05-29T00:11:55;16.50;99.90
22838;DHT22;11585;51.450;-0.240;2023-05-29T00:14:21;16.50;99.90
22838;DHT22;11585;51.450;-0.240;2023-05-29T00:16:49;16.50;99.90
22838;DHT22;11585;51.450;-0.240;2023-05-29T00:19:16;16.40;99.90
22838;DHT22;11585;51.450;-0.240;2023-05-29T00:21:42;16.40;99.90
22838;DHT22;11585;51.450;-0.240;2023-05-29T00:24:08;16.40;99.90
22838;DHT22;11585;51.450;-0.240;2023-05-29T00:26:34;16.30;99.90
22838;DHT22;11585;51.450;-0.240;2023-05-29T00:28:59;16.30;99.90
22838;DHT22;11585;51.450;-0.240;2023-05-29T00:31:25;16.30;99.90
22838;DHT22;11585;51.450;-0.240;2023-05-29T00:33:51;16.20;99.90
22838;DHT22;11585;51.450;-0.240;2023-05-29T00:36:17;16.20;99.90
22838;DHT22;11585;51.450;-0.240;2023-05-29T00:38:42;16.20;99.90
22838;DHT22;11585;51.450;-0.240;2023-05-29T00:41:14;16.10;99.90
22838;DHT22;11585;51.450;-0.240;2023-05-29T00:43:41;16.10;99.90
22838;DHT22;11585;51.450;-0.240;2023-05-29T00:46:07;16.10;99.90
22838;DHT22;11585;51.450;-0.240;2023-05-29T00:48:33;16.10;99.90
22838;DHT22;11585;51.450;-0.240;2023-05-29T00:50:59;16.00;99.90
22838;DHT22;11585;51.450;-0.240;2023-05-29T00:53:25;16.00;99.90
22838;DHT22;11585;51.450;-0.240;2023-05-29T00:55:52;16.00;99.90
22838;DHT22;11585;51.450;-0.240;2023-05-29T00:58:18;15.90;99.90
22838;DHT22;11585;51.450;-0.240;2023-05-29T01:00:45;15.90;99.90
22838;DHT22;11585;51.450;-0.240;2023-05-29T01:03:12;15.90;99.90
22838;DHT22;11585;51.450;-0.240;2023-05-29T01:05:40;15.80;99.90
22838;DHT22;11585;51.450;-0.240;2023-05-29T01:08:06;15.80;99.90
22838;DHT22;11585;51.450;-0.240;2023-05-29T01:10:34;15.80;99.90
22838;DHT22;11585;51.450;-0.240;2023-05-29T01:13:11;15.80;99.90
22838;DHT22;11585;51.450;-0.240;2023-05-29T01:16:01;15.80;99.90
22838;DHT22;11585;51.450;-0.240;2023-05-29T01:18:54;15.70;99.90
22838;DHT22;11585;51.450;-0.240;2023-05-29T01:21:42;15.70;99.90
22838;DHT22;11585;51.450;-0.240;2023-05-29T01:27:10;15.60;99.90
22838;DHT22;11585;51.450;-0.240;2023-05-29T01:29:39;15.60;99.90
22838;DHT22;11585;51.450;-0.240;2023-05-29T01:32:05;15.60;99.90
22838;DHT22;11585;51.450;-0.240;2023-05-29T01:34:32;15.50;99.90
22838;DHT22;11585;51.450;-0.240;2023-05-29T01:36:57;15.50;99.90
22838;DHT22;11585;51.450;-0.240;2023-05-29T01:39:25;15.50;99.90
22838;DHT22;11585;51.450;-0.240;2023-05-29T01:41:52;15.50;99.90
22838;DHT22;11585;51.450;-0.240;2023-05-29T01:44:18;15.40;99.90
22838;DHT22;11585;51.450;-0.240;2023-05-29T01:46:44;15.40;99.90
22838;DHT22;11585;51.450;-0.240;2023-05-29T01:49:11;15.40;99.90
22838;DHT22;11585;51.450;-0.240;2023-05-29T01:51:41;15.40;99.90
22838;DHT22;11585;51.450;-0.240;2023-05-29T01:54:07;15.40;99.90
22838;DHT22;11585;51.450;-0.240;2023-05-29T01:56:33;15.30;99.90
22838;DHT22;11585;51.450;-0.240;2023-05-29T01:59:20;15.30;99.90
22838;DHT22;11585;51.450;-0.240;2023-05-29T02:01:47;15.30;99.90
22838;DHT22;11585;51.450;-0.240;2023-05-29T02:04:13;15.20;99.90
22838;DHT22;11585;51.450;-0.240;2023-05-29T02:06:38;15.20;99.90
22838;DHT22;11585;51.450;-0.240;2023-05-29T02:09:04;15.20;99.90
22838;DHT22;11585;51.450;-0.240;2023-05-29T02:11:31;15.20;99.90
22838;DHT22;11585;51.450;-0.240;2023-05-29T02:13:57;15.20;99.90
22838;DHT22;11585;51.450;-0.240;2023-05-29T02:16:22;15.10;99.90
22838;DHT22;11585;51.450;-0.240;2023-05-29T02:22:10;15.10;99.90
22838;DHT22;11585;51.450;-0.240;2023-05-29T02:24:36;15.10;99.90
22838;DHT22;11585;51.450;-0.240;2023-05-29T02:27:01;15.10;99.90
22838;DHT22;11585;51.450;-0.240;2023-05-29T02:29:28;15.00;99.90
22838;DHT22;11585;51.450;-0.240;2023-05-29T02:31:54;15.00;99.90
22838;DHT22;11585;51.450;-0.240;2023-05-29T02:34:20;15.00;99.90
22838;DHT22;11585;51.450;-0.240;2023-05-29T02:36:48;15.00;99.90
22838;DHT22;11585;51.450;-0.240;2023-05-29T02:39:35;15.00;99.90
22838;DHT22;11585;51.450;-0.240;2023-05-29T02:42:00;15.00;99.90
22838;DHT22;11585;51.450;-0.240;2023-05-29T02:44:26;14.90;99.90
22838;DHT22;11585;51.450;-0.240;2023-05-29T02:46:52;14.90;99.90
22838;DHT22;11585;51.450;-0.240;2023-05-29T02:49:17;14.90;99.90
22838;DHT22;11585;51.450;-0.240;2023-05-29T02:51:43;14.90;99.90
22838;DHT22;11585;51.450;-0.240;2023-05-29T02:54:08;14.90;99.90
22838;DHT22;11585;51.450;-0.240;2023-05-29T02:56:34;14.80;99.90
22838;DHT22;11585;51.450;-0.240;2023-05-29T02:59:01;14.80;99.90
22838;DHT22;11585;51.450;-0.240;2023-05-29T03:01:27;14.80;99.90
22838;DHT22;11585;51.450;-0.240;2023-05-29T03:03:52;14.80;99.90
22838;DHT22;11585;51.450;-0.240;2023-05-29T03:06:18;14.80;99.90
22838;DHT22;11585;51.450;-0.240;2023-05-29T03:09:05;14.80;99.90
22838;DHT22;11585;51.450;-0.240;2023-05-29T03:11:31;14.70;99.90
22838;DHT22;11585;51.450;-0.240;2023-05-29T03:13:58;14.70;99.90
22838;DHT22;11585;51.450;-0.240;2023-05-29T03:16:24;14.70;99.90
22838;DHT22;11585;51.450;-0.240;2023-05-29T03:19:10;14.70;99.90
22838;DHT22;11585;51.450;-0.240;2023-05-29T03:21:36;14.70;99.90
22838;DHT22;11585;51.450;-0.240;2023-05-29T03:24:02;14.60;99.90
22838;DHT22;11585;51.450;-0.240;2023-05-29T03:26:28;14.60;99.90
22838;DHT22;11585;51.450;-0.240;2023-05-29T03:28:54;14.60;99.90
22838;DHT22;11585;51.450;-0.240;2023-05-29T03:31:20;14.60;99.90
22838;DHT22;11585;51.450;-0.240;2023-05-29T03:33:46;14.50;99.90
22838;DHT22;11585;51.450;-0.240;2023-05-29T03:36:12;14.50;99.90
22838;DHT22;11585;51.450;-0.240;2023-05-29T03:38:57;14.50;99.90
22838;DHT22;11585;51.450;-0.240;2023-05-29T03:41:22;14.50;99.90
22838;DHT22;11585;51.450;-0.240;2023-05-29T03:43:48;14.50;99.90
22838;DHT22;11585;51.450;-0.240;2023-05-29T03:46:14;14.40;99.90
22838;DHT22;11585;51.450;-0.240;2023-05-29T03:48:41;14.40;99.90
22838;DHT22;11585;51.450;-0.240;2023-05-29T03:51:07;14.40;99.90
22838;DHT22;11585;51.450;-0.240;2023-05-29T03:53:33;14.40;99.90
22838;DHT22;11585;51.450;-0.240;2023-05-29T03:55:58;14.40;99.90
22838;DHT22;11585;51.450;-0.240;2023-05-29T03:58:24;14.40;99.90
22838;DHT22;11585;51.450;-0.240;2023-05-29T04:00:50;14.30;99.90
22838;DHT22;11585;51.450;-0.240;2023-05-29T04:03:16;14.30;99.90
22838;DHT22;11585;51.450;-0.240;2023-05-29T04:05:42;14.30;99.90
22838;DHT22;11585;51.450;-0.240;2023-05-29T04:08:07;14.30;99.90
22838;DHT22;11585;51.450;-0.240;2023-05-29T04:10:38;14.30;99.90
22838;DHT22;11585;51.450;-0.240;2023-05-29T04:13:04;14.30;99.90
22838;DHT22;11585;51.450;-0.240;2023-05-29T04:15:30;14.20;99.90
22838;DHT22;11585;51.450;-0.240;2023-05-29T04:17:58;14.20;99.90
22838;DHT22;11585;51.450;-0.240;2023-05-29T04:20:24;14.20;99.90
22838;DHT22;11585;51.450;-0.240;2023-05-29T04:22:50;14.20;99.90
22838;DHT22;11585;51.450;-0.240;2023-05-29T04:25:16;14.20;99.90
22838;DHT22;11585;51.450;-0.240;2023-05-29T04:27:41;14.20;99.90
22838;DHT22;11585;51.450;-0.240;2023-05-29T04:30:09;14.10;99.90
22838;DHT22;11585;51.450;-0.240;2023-05-29T04:32:35;14.10;99.90
22838;DHT22;11585;51.450;-0.240;2023-05-29T04:35:01;14.10;99.90
22838;DHT22;11585;51.450;-0.240;2023-05-29T04:37:27;14.00;99.90
22838;DHT22;11585;51.450;-0.240;2023-05-29T04:40:15;14.10;99.90
22838;DHT22;11585;51.450;-0.240;2023-05-29T04:42:43;14.10;99.90
22838;DHT22;11585;51.450;-0.240;2023-05-29T04:45:11;14.00;99.90
22838;DHT22;11585;51.450;-0.240;2023-05-29T04:47:37;14.00;99.90
22838;DHT22;11585;51.450;-0.240;2023-05-29T04:50:16;14.00;99.90
22838;DHT22;11585;51.450;-0.240;2023-05-29T04:52:43;14.00;99.90
22838;DHT22;11585;51.450;-0.240;2023-05-29T04:55:09;14.00;99.90
22838;DHT22;11585;51.450;-0.240;2023-05-29T04:57:36;14.00;99.90
22838;DHT22;11585;51.450;-0.240;2023-05-29T05:03:23;14.00;99.90
22838;DHT22;11585;51.450;-0.240;2023-05-29T05:05:51;13.90;99.90
22838;DHT22;11585;51.450;-0.240;2023-05-29T05:08:17;13.90;99.90
22838;DHT22;11585;51.450;-0.240;2023-05-29T05:10:45;13.90;99.90
22838;DHT22;11585;51.450;-0.240;2023-05-29T05:13:10;13.90;99.90
22838;DHT22;11585;51.450;-0.240;2023-05-29T05:15:37;13.90;99.90
22838;DHT22;11585;51.450;-0.240;2023-05-29T05:18:03;13.90;99.90
22838;DHT22;11585;51.450;-0.240;2023-05-29T05:20:50;13.90;99.90
22838;DHT22;11585;51.450;-0.240;2023-05-29T05:23:16;13.90;99.90
22838;DHT22;11585;51.450;-0.240;2023-05-29T05:25:41;13.90;99.90
22838;DHT22;11585;51.450;-0.240;2023-05-29T05:28:08;13.90;99.90
22838;DHT22;11585;51.450;-0.240;2023-05-29T05:30:35;13.90;99.90
22838;DHT22;11585;51.450;-0.240;2023-05-29T05:33:01;13.90;99.90
22838;DHT22;11585;51.450;-0.240;2023-05-29T05:35:26;13.90;99.90
22838;DHT22;11585;51.450;-0.240;2023-05-29T05:37:52;13.90;99.90
22838;DHT22;11585;51.450;-0.240;2023-05-29T05:40:18;13.90;99.90
22838;DHT22;11585;51.450;-0.240;2023-05-29T05:42:44;13.90;99.90
22838;DHT22;11585;51.450;-0.240;2023-05-29T05:45:10;13.90;99.90
22838;DHT22;11585;51.450;-0.240;2023-05-29T05:47:36;13.90;99.90
22838;DHT22;11585;51.450;-0.240;2023-05-29T05:50:03;13.90;99.90
22838;DHT22;11585;51.450;-0.240;2023-05-29T05:52:30;13.90;99.90
22838;DHT22;11585;51.450;-0.240;2023-05-29T05:54:57;13.90;99.90
22838;DHT22;11585;51.450;-0.240;2023-05-29T05:57:23;13.90;99.90
22838;DHT22;11585;51.450;-0.240;2023-05-29T05:59:49;13.90;99.90
22838;DHT22;11585;51.450;-0.240;2023-05-29T06:02:14;14.00;99.90
22838;DHT22;11585;51.450;-0.240;2023-05-29T06:04:40;14.00;99.90
22838;DHT22;11585;51.450;-0.240;2023-05-29T06:07:07;14.00;99.90
22838;DHT22;11585;51.450;-0.240;2023-05-29T06:09:33;14.10;99.90
22838;DHT22;11585;51.450;-0.240;2023-05-29T06:11:59;14.00;99.90
22838;DHT22;11585;51.450;-0.240;2023-05-29T06:14:25;14.10;99.90
22838;DHT22;11585;51.450;-0.240;2023-05-29T06:16:51;14.10;99.90
22838;DHT22;11585;51.450;-0.240;2023-05-29T06:19:21;14.10;99.90
22838;DHT22;11585;51.450;-0.240;2023-05-29T06:21:47;14.10;99.90
22838;DHT22;11585;51.450;-0.240;2023-05-29T06:24:13;14.10;99.90
22838;DHT22;11585;51.450;-0.240;2023-05-29T06:26:39;14.20;99.90
22838;DHT22;11585;51.450;-0.240;2023-05-29T06:29:05;14.20;99.90
22838;DHT22;11585;51.450;-0.240;2023-05-29T06:31:31;14.20;99.90
22838;DHT22;11585;51.450;-0.240;2023-05-29T06:33:58;14.20;99.90
22838;DHT22;11585;51.450;-0.240;2023-05-29T06:36:24;14.20;99.90
22838;DHT22;11585;51.450;-0.240;2023-05-29T06:38:51;14.30;99.90
22838;DHT22;11585;51.450;-0.240;2023-05-29T06:41:17;14.20;99.90
22838;DHT22;11585;51.450;-0.240;2023-05-29T06:43:42;14.30;99.90
22838;DHT22;11585;51.450;-0.240;2023-05-29T06:46:08;14.30;99.90
22838;DHT22;11585;51.450;-0.240;2023-05-29T06:48:37;14.30;99.90
22838;DHT22;11585;51.450;-0.240;2023-05-29T06:51:03;14.30;99.90
22838;DHT22;11585;51.450;-0.240;2023-05-29T06:53:37;14.30;99.90
22838;DHT22;11585;51.450;-0.240;2023-05-29T06:56:05;14.30;99.90
22838;DHT22;11585;51.450;-0.240;2023-05-29T06:58:31;14.30;99.90
22838;DHT22;11585;51.450;-0.240;2023-05-29T07:01:16;14.40;99.90
22838;DHT22;11585;51.450;-0.240;2023-05-29T07:03:42;14.40;99.90
22838;DHT22;11585;51.450;-0.240;2023-05-29T07:06:08;14.40;99.90
22838;DHT22;11585;51.450;-0.240;2023-05-29T07:08:33;14.40;99.90
22838;DHT22;11585;51.450;-0.240;2023-05-29T07:10:59;14.50;99.90
22838;DHT22;11585;51.450;-0.240;2023-05-29T07:13:25;14.50;99.90
22838;DHT22;11585;51.450;-0.240;2023-05-29T07:15:54;14.60;99.90
22838;DHT22;11585;51.450;-0.240;2023-05-29T07:18:19;14.60;99.90
22838;DHT22;11585;51.450;-0.240;2023-05-29T07:20:46;14.60;99.90
22838;DHT22;11585;51.450;-0.240;2023-05-29T07:23:12;14.70;99.90
22838;DHT22;11585;51.450;-0.240;2023-05-29T07:25:37;14.70;99.90
22838;DHT22;11585;51.450;-0.240;2023-05-29T07:28:03;14.80;99.90
22838;DHT22;11585;51.450;-0.240;2023-05-29T07:30:28;14.80;99.90
22838;DHT22;11585;51.450;-0.240;2023-05-29T07:32:55;14.80;99.90
22838;DHT22;11585;51.450;-0.240;2023-05-29T07:35:20;14.90;99.90
22838;DHT22;11585;51.450;-0.240;2023-05-29T07:37:46;14.90;99.90
22838;DHT22;11585;51.450;-0.240;2023-05-29T07:40:13;15.00;99.90
22838;DHT22;11585;51.450;-0.240;2023-05-29T07:42:39;15.00;99.90
22838;DHT22;11585;51.450;-0.240;2023-05-29T07:45:05;15.10;99.90
22838;DHT22;11585;51.450;-0.240;2023-05-29T07:47:30;15.10;99.90
22838;DHT22;11585;51.450;-0.240;2023-05-29T07:53:02;15.20;99.90
22838;DHT22;11585;51.450;-0.240;2023-05-29T07:55:27;15.30;99.90
22838;DHT22;11585;51.450;-0.240;2023-05-29T07:57:53;15.30;99.90
22838;DHT22;11585;51.450;-0.240;2023-05-29T08:03:07;15.40;99.90
22838;DHT22;11585;51.450;-0.240;2023-05-29T08:05:33;15.50;99.90
22838;DHT22;11585;51.450;-0.240;2023-05-29T08:07:59;15.50;99.90
22838;DHT22;11585;51.450;-0.240;2023-05-29T08:10:30;15.50;99.90
22838;DHT22;11585;51.450;-0.240;2023-05-29T08:12:56;15.60;99.90
22838;DHT22;11585;51.450;-0.240;2023-05-29T08:15:22;15.60;99.90
22838;DHT22;11585;51.450;-0.240;2023-05-29T08:17:49;15.60;99.90
22838;DHT22;11585;51.450;-0.240;2023-05-29T08:20:15;15.60;99.90
22838;DHT22;11585;51.450;-0.240;2023-05-29T08:22:42;15.70;99.90
22838;DHT22;11585;51.450;-0.240;2023-05-29T08:25:08;15.70;99.90
22838;DHT22;11585;51.450;-0.240;2023-05-29T08:27:33;15.80;99.90
22838;DHT22;11585;51.450;-0.240;2023-05-29T08:30:19;15.80;99.90
22838;DHT22;11585;51.450;-0.240;2023-05-29T08:32:45;15.90;99.90
22838;DHT22;11585;51.450;-0.240;2023-05-29T08:35:12;15.90;99.90
22838;DHT22;11585;51.450;-0.240;2023-05-29T08:37:38;15.90;99.90
22838;DHT22;11585;51.450;-0.240;2023-05-29T08:40:04;15.90;99.90
22838;DHT22;11585;51.450;-0.240;2023-05-29T08:42:36;15.90;99.90
22838;DHT22;11585;51.450;-0.240;2023-05-29T08:45:03;16.00;99.90
22838;DHT22;11585;51.450;-0.240;2023-05-29T08:47:33;16.00;99.90
22838;DHT22;11585;51.450;-0.240;2023-05-29T08:50:20;16.10;99.90
22838;DHT22;11585;51.450;-0.240;2023-05-29T08:52:46;16.10;99.90
22838;DHT22;11585;51.450;-0.240;2023-05-29T08:55:13;16.10;99.90
22838;DHT22;11585;51.450;-0.240;2023-05-29T08:57:39;16.10;99.90
22838;DHT22;11585;51.450;-0.240;2023-05-29T09:03:08;16.20;99.90
22838;DHT22;11585;51.450;-0.240;2023-05-29T09:05:35;16.10;99.90
22838;DHT22;11585;51.450;-0.240;2023-05-29T09:08:05;16.20;99.90
22838;DHT22;11585;51.450;-0.240;2023-05-29T09:10:32;16.20;99.90
22838;DHT22;11585;51.450;-0.240;2023-05-29T09:12:59;16.20;99.90
22838;DHT22;11585;51.450;-0.240;2023-05-29T09:15:24;16.30;99.90
22838;DHT22;11585;51.450;-0.240;2023-05-29T09:17:55;16.30;99.90
22838;DHT22;11585;51.450;-0.240;2023-05-29T09:20:24;16.30;99.90
22838;DHT22;11585;51.450;-0.240;2023-05-29T09:22:58;16.30;99.90
22838;DHT22;11585;51.450;-0.240;2023-05-29T09:25:26;16.40;99.90
22838;DHT22;11585;51.450;-0.240;2023-05-29T09:27:57;16.30;99.90
22838;DHT22;11585;51.450;-0.240;2023-05-29T09:30:38;16.40;99.90
22838;DHT22;11585;51.450;-0.240;2023-05-29T09:33:05;16.40;99.90
22838;DHT22;11585;51.450;-0.240;2023-05-29T09:35:45;16.40;99.90
22838;DHT22;11585;51.450;-0.240;2023-05-29T09:38:13;16.50;99.90
22838;DHT22;11585;51.450;-0.240;2023-05-29T09:40:41;16.50;99.90
22838;DHT22;11585;51.450;-0.240;2023-05-29T09:43:11;16.50;99.90
22838;DHT22;11585;51.450;-0.240;2023-05-29T09:45:42;16.60;99.90
22838;DHT22;11585;51.450;-0.240;2023-05-29T09:48:18;16.60;99.90
22838;DHT22;11585;51.450;-0.240;2023-05-29T09:50:47;16.60;99.90
22838;DHT22;11585;51.450;-0.240;2023-05-29T09:53:21;16.70;99.90
22838;DHT22;11585;51.450;-0.240;2023-05-29T09:55:54;16.70;99.90
22838;DHT22;11585;51.450;-0.240;2023-05-29T09:58:23;16.70;99.90
22838;DHT22;11585;51.450;-0.240;2023-05-29T10:00:52;16.80;99.90
22838;DHT22;11585;51.450;-0.240;2023-05-29T10:03:19;16.80;99.90
22838;DHT22;11585;51.450;-0.240;2023-05-29T10:05:50;16.90;99.90
22838;DHT22;11585;51.450;-0.240;2023-05-29T10:08:19;16.90;99.90
22838;DHT22;11585;51.450;-0.240;2023-05-29T10:13:53;17.00;99.90
22838;DHT22;11585;51.450;-0.240;2023-05-29T10:16:23;17.00;99.90
22838;DHT22;11585;51.450;-0.240;2023-05-29T10:18:56;17.00;99.90
22838;DHT22;11585;51.450;-0.240;2023-05-29T10:21:27;17.00;99.90
22838;DHT22;11585;51.450;-0.240;2023-05-29T10:23:54;17.00;99.90
22838;DHT22;11585;51.450;-0.240;2023-05-29T10:26:24;17.10;99.90
22838;DHT22;11585;51.450;-0.240;2023-05-29T10:35:01;17.20;99.90
22838;DHT22;11585;51.450;-0.240;2023-05-29T10:37:42;17.20;99.90
22838;DHT22;11585;51.450;-0.240;2023-05-29T10:43:31;17.30;99.90
22838;DHT22;11585;51.450;-0.240;2023-05-29T10:49:03;17.30;99.90
22838;DHT22;11585;51.450;-0.240;2023-05-29T10:51:29;17.30;99.90
22838;DHT22;11585;51.450;-0.240;2023-05-29T10:53:56;17.40;99.90
22838;DHT22;11585;51.450;-0.240;2023-05-29T10:56:28;17.40;99.90
22838;DHT22;11585;51.450;-0.240;2023-05-29T10:58:59;17.50;99.90
22838;DHT22;11585;51.450;-0.240;2023-05-29T11:01:28;17.50;99.90
22838;DHT22;11585;51.450;-0.240;2023-05-29T11:06:41;17.60;99.90
22838;DHT22;11585;51.450;-0.240;2023-05-29T11:09:29;17.60;99.90
22838;DHT22;11585;51.450;-0.240;2023-05-29T11:12:24;17.70;99.90
22838;DHT22;11585;51.450;-0.240;2023-05-29T11:15:08;17.70;99.90
22838;DHT22;11585;51.450;-0.240;2023-05-29T11:20:35;17.70;99.90
22838;DHT22;11585;51.450;-0.240;2023-05-29T11:23:06;17.80;99.90
22838;DHT22;11585;51.450;-0.240;2023-05-29T11:25:35;17.90;99.90
22838;DHT22;11585;51.450;-0.240;2023-05-29T11:28:01;17.90;99.90
22838;DHT22;11585;51.450;-0.240;2023-05-29T11:30:50;17.90;99.90
22838;DHT22;11585;51.450;-0.240;2023-05-29T11:33:26;18.00;99.90
22838;DHT22;11585;51.450;-0.240;2023-05-29T11:35:59;18.00;99.90
22838;DHT22;11585;51.450;-0.240;2023-05-29T11:38:26;18.10;99.90
22838;DHT22;11585;51.450;-0.240;2023-05-29T11:40:55;18.10;99.90
22838;DHT22;11585;51.450;-0.240;2023-05-29T11:43:21;18.20;99.90
22838;DHT22;11585;51.450;-0.240;2023-05-29T11:45:47;18.20;99.90
22838;DHT22;11585;51.450;-0.240;2023-05-29T11:48:13;18.30;99.90
22838;DHT22;11585;51.450;-0.240;2023-05-29T11:50:44;18.30;99.90
22838;DHT22;11585;51.450;-0.240;2023-05-29T11:53:11;18.30;99.90
22838;DHT22;11585;51.450;-0.240;2023-05-29T11:55:37;18.40;99.90
22838;DHT22;11585;51.450;-0.240;2023-05-29T11:58:03;18.40;99.90
22838;DHT22;11585;51.450;-0.240;2023-05-29T12:00:36;18.40;99.90
22838;DHT22;11585;51.450;-0.240;2023-05-29T12:03:04;18.50;99.90
22838;DHT22;11585;51.450;-0.240;2023-05-29T12:05:31;18.50;99.90
22838;DHT22;11585;51.450;-0.240;2023-05-29T12:07:57;18.60;99.90
22838;DHT22;11585;51.450;-0.240;2023-05-29T12:10:28;18.60;99.90
22838;DHT22;11585;51.450;-0.240;2023-05-29T12:12:56;18.60;99.90
22838;DHT22;11585;51.450;-0.240;2023-05-29T12:15:22;18.70;99.90
22838;DHT22;11585;51.450;-0.240;2023-05-29T12:17:49;18.70;99.90
22838;DHT22;11585;51.450;-0.240;2023-05-29T12:20:16;18.80;99.90
22838;DHT22;11585;51.450;-0.240;2023-05-29T12:22:43;18.80;99.90
22838;DHT22;11585;51.450;-0.240;2023-05-29T12:25:14;18.80;99.90
22838;DHT22;11585;51.450;-0.240;2023-05-29T12:27:44;18.80;99.90
22838;DHT22;11585;51.450;-0.240;2023-05-29T12:33:33;18.90;99.90
22838;DHT22;11585;51.450;-0.240;2023-05-29T12:36:04;18.90;99.90
22838;DHT22;11585;51.450;-0.240;2023-05-29T12:38:32;18.90;99.90
22838;DHT22;11585;51.450;-0.240;2023-05-29T12:44:19;18.90;99.90
22838;DHT22;11585;51.450;-0.240;2023-05-29T12:46:45;18.90;99.90
22838;DHT22;11585;51.450;-0.240;2023-05-29T12:52:05;19.00;99.90
22838;DHT22;11585;51.450;-0.240;2023-05-29T12:54:32;19.00;99.90
22838;DHT22;11585;51.450;-0.240;2023-05-29T12:56:58;19.00;99.90
22838;DHT22;11585;51.450;-0.240;2023-05-29T12:59:26;19.00;99.90
22838;DHT22;11585;51.450;-0.240;2023-05-29T13:01:52;19.00;99.90
22838;DHT22;11585;51.450;-0.240;2023-05-29T13:04:17;19.00;99.90
22838;DHT22;11585;51.450;-0.240;2023-05-29T13:06:43;19.00;99.90
22838;DHT22;11585;51.450;-0.240;2023-05-29T13:09:10;19.00;99.90
22838;DHT22;11585;51.450;-0.240;2023-05-29T13:11:37;19.10;99.90
22838;DHT22;11585;51.450;-0.240;2023-05-29T13:14:02;19.10;99.90
22838;DHT22;11585;51.450;-0.240;2023-05-29T13:16:28;19.10;99.90
22838;DHT22;11585;51.450;-0.240;2023-05-29T13:18:53;19.10;99.90
22838;DHT22;11585;51.450;-0.240;2023-05-29T13:21:19;19.10;99.90
22838;DHT22;11585;51.450;-0.240;2023-05-29T13:23:45;19.20;99.90
22838;DHT22;11585;51.450;-0.240;2023-05-29T13:26:10;19.20;99.90
22838;DHT22;11585;51.450;-0.240;2023-05-29T13:28:36;19.20;99.90
22838;DHT22;11585;51.450;-0.240;2023-05-29T13:31:01;19.20;99.90
22838;DHT22;11585;51.450;-0.240;2023-05-29T13:33:27;19.20;99.90
22838;DHT22;11585;51.450;-0.240;2023-05-29T13:35:53;19.30;99.90
22838;DHT22;11585;51.450;-0.240;2023-05-29T13:38:18;19.30;99.90
22838;DHT22;11585;51.450;-0.240;2023-05-29T13:40:44;19.30;99.90
22838;DHT22;11585;51.450;-0.240;2023-05-29T13:43:10;19.30;99.90
22838;DHT22;11585;51.450;-0.240;2023-05-29T13:45:35;19.30;99.90
22838;DHT22;11585;51.450;-0.240;2023-05-29T13:48:01;19.40;99.90
22838;DHT22;11585;51.450;-0.240;2023-05-29T13:50:28;19.40;99.90
22838;DHT22;11585;51.450;-0.240;2023-05-29T13:52:54;19.40;99.90
22838;DHT22;11585;51.450;-0.240;2023-05-29T13:55:19;19.40;99.90
22838;DHT22;11585;51.450;-0.240;2023-05-29T13:57:45;19.40;99.90
22838;DHT22;11585;51.450;-0.240;2023-05-29T14:00:12;19.40;99.90
22838;DHT22;11585;51.450;-0.240;2023-05-29T14:02:38;19.40;99.90
22838;DHT22;11585;51.450;-0.240;2023-05-29T14:05:04;19.40;99.90
22838;DHT22;11585;51.450;-0.240;2023-05-29T14:07:31;19.40;99.90
22838;DHT22;11585;51.450;-0.240;2023-05-29T14:09:59;19.40;99.90
22838;DHT22;11585;51.450;-0.240;2023-05-29T14:12:24;19.50;99.90
22838;DHT22;11585;51.450;-0.240;2023-05-29T14:14:50;19.40;99.90
22838;DHT22;11585;51.450;-0.240;2023-05-29T14:17:16;19.40;99.90
22838;DHT22;11585;51.450;-0.240;2023-05-29T14:19:44;19.50;99.90
22838;DHT22;11585;51.450;-0.240;2023-05-29T14:22:11;19.40;99.90
22838;DHT22;11585;51.450;-0.240;2023-05-29T14:24:36;19.40;99.90
22838;DHT22;11585;51.450;-0.240;2023-05-29T14:27:02;19.40;99.90
22838;DHT22;11585;51.450;-0.240;2023-05-29T14:29:29;19.40;99.90
22838;DHT22;11585;51.450;-0.240;2023-05-29T14:31:55;19.40;99.90
22838;DHT22;11585;51.450;-0.240;2023-05-29T14:34:21;19.40;99.90
22838;DHT22;11585;51.450;-0.240;2023-05-29T14:36:47;19.40;99.90
22838;DHT22;11585;51.450;-0.240;2023-05-29T14:39:14;19.40;99.90
22838;DHT22;11585;51.450;-0.240;2023-05-29T14:41:40;19.40;99.90
22838;DHT22;11585;51.450;-0.240;2023-05-29T14:44:05;19.40;99.90
22838;DHT22;11585;51.450;-0.240;2023-05-29T14:46:31;19.40;99.90
22838;DHT22;11585;51.450;-0.240;2023-05-29T14:49:01;19.30;99.90
22838;DHT22;11585;51.450;-0.240;2023-05-29T14:51:27;19.30;99.90
22838;DHT22;11585;51.450;-0.240;2023-05-29T14:53:52;19.20;99.90
22838;DHT22;11585;51.450;-0.240;2023-05-29T14:56:18;19.20;99.90
22838;DHT22;11585;51.450;-0.240;2023-05-29T14:58:45;19.40;99.90
22838;DHT22;11585;51.450;-0.240;2023-05-29T15:01:13;19.10;99.90
22838;DHT22;11585;51.450;-0.240;2023-05-29T15:03:39;19.10;99.90
22838;DHT22;11585;51.450;-0.240;2023-05-29T15:06:05;19.00;99.90
22838;DHT22;11585;51.450;-0.240;2023-05-29T15:08:32;19.00;99.90
22838;DHT22;11585;51.450;-0.240;2023-05-29T15:11:00;19.00;99.90
22838;DHT22;11585;51.450;-0.240;2023-05-29T15:13:28;18.90;99.90
22838;DHT22;11585;51.450;-0.240;2023-05-29T15:15:54;18.90;99.90
22838;DHT22;11585;51.450;-0.240;2023-05-29T15:18:19;18.80;99.90
22838;DHT22;11585;51.450;-0.240;2023-05-29T15:20:45;18.80;99.90
22838;DHT22;11585;51.450;-0.240;2023-05-29T15:23:11;18.80;99.90
22838;DHT22;11585;51.450;-0.240;2023-05-29T15:25:36;18.80;99.90
22838;DHT22;11585;51.450;-0.240;2023-05-29T15:28:02;18.80;99.90
22838;DHT22;11585;51.450;-0.240;2023-05-29T15:30:32;18.80;99.90
22838;DHT22;11585;51.450;-0.240;2023-05-29T15:32:58;18.80;99.90
22838;DHT22;11585;51.450;-0.240;2023-05-29T15:35:24;18.70;99.90
22838;DHT22;11585;51.450;-0.240;2023-05-29T15:37:50;18.70;99.90
22838;DHT22;11585;51.450;-0.240;2023-05-29T15:43:38;18.70;99.90
22838;DHT22;11585;51.450;-0.240;2023-05-29T15:46:03;18.70;99.90
22838;DHT22;11585;51.450;-0.240;2023-05-29T15:48:30;18.70;99.90
22838;DHT22;11585;51.450;-0.240;2023-05-29T15:51:15;18.70;99.90
22838;DHT22;11585;51.450;-0.240;2023-05-29T15:53:41;18.70;99.90
22838;DHT22;11585;51.450;-0.240;2023-05-29T15:56:06;18.70;99.90
22838;DHT22;11585;51.450;-0.240;2023-05-29T15:58:35;18.70;99.90
22838;DHT22;11585;51.450;-0.240;2023-05-29T16:01:01;18.70;99.90
22838;DHT22;11585;51.450;-0.240;2023-05-29T16:03:28;18.70;99.90
22838;DHT22;11585;51.450;-0.240;2023-05-29T16:05:53;18.80;99.90
22838;DHT22;11585;51.450;-0.240;2023-05-29T16:08:19;18.80;99.90
22838;DHT22;11585;51.450;-0.240;2023-05-29T16:10:45;18.70;99.90
22838;DHT22;11585;51.450;-0.240;2023-05-29T16:13:11;18.70;99.90
22838;DHT22;11585;51.450;-0.240;2023-05-29T16:15:42;18.70;99.90